Terminal Aerodrome Forecast
Issued by NWS Sioux Falls, SD

Home | Current Version | Previous Version | Text Only | Print | Product List | Glossary Off
Versions: 1 2 3 4 5 6 7 8 9 10 11 12 13 14 15 16 17 18 19 20 21 22 23 24 25 26 27 28 29 30

000
FTUS43 KFSD 250500 AAA
TAFSUX
TAF AMD
KSUX 250500Z 2505/2524 30014G20KT P6SM -RA BKN018
     FM250800 34020G28KT 4SM -SN OVC010
     FM251000 34022G30KT 2SM -SN OVC010
     FM251300 34020G30KT 5SM -SN OVC012
     FM251700 34018G25KT P6SM OVC025
     FM252200 34012KT P6SM SCT040 BKN250=

USA.gov is the U.S. government's official web portal to all federal, state and local government web resources and services.